sensor_id;sensor_type;location;lat;lon;timestamp;P1;durP1;ratioP1;P2;durP2;ratioP2
18905;SDS011;9585;51.018;4.282;2022-07-12T00:00:48;3.75;;;3.45;;
18905;SDS011;9585;51.018;4.282;2022-07-12T00:03:16;3.63;;;3.33;;
18905;SDS011;9585;51.018;4.282;2022-07-12T00:05:44;4.40;;;4.00;;
18905;SDS011;9585;51.018;4.282;2022-07-12T00:08:11;4.03;;;3.72;;
18905;SDS011;9585;51.018;4.282;2022-07-12T00:10:38;4.75;;;4.35;;
18905;SDS011;9585;51.018;4.282;2022-07-12T00:13:06;5.93;;;4.15;;
18905;SDS011;9585;51.018;4.282;2022-07-12T00:15:35;4.78;;;4.22;;
18905;SDS011;9585;51.018;4.282;2022-07-12T00:18:02;4.00;;;3.70;;
18905;SDS011;9585;51.018;4.282;2022-07-12T00:20:30;4.43;;;4.03;;
18905;SDS011;9585;51.018;4.282;2022-07-12T00:22:57;4.25;;;3.85;;
18905;SDS011;9585;51.018;4.282;2022-07-12T00:25:25;4.03;;;3.72;;
18905;SDS011;9585;51.018;4.282;2022-07-12T00:27:52;3.85;;;3.55;;
18905;SDS011;9585;51.018;4.282;2022-07-12T00:30:21;4.18;;;3.80;;
18905;SDS011;9585;51.018;4.282;2022-07-12T00:32:52;4.60;;;4.20;;
18905;SDS011;9585;51.018;4.282;2022-07-12T00:35:20;4.18;;;3.78;;
18905;SDS011;9585;51.018;4.282;2022-07-12T00:37:47;4.10;;;3.70;;
18905;SDS011;9585;51.018;4.282;2022-07-12T00:40:15;3.95;;;3.60;;
18905;SDS011;9585;51.018;4.282;2022-07-12T00:42:43;4.30;;;3.90;;
18905;SDS011;9585;51.018;4.282;2022-07-12T00:45:10;4.20;;;3.80;;
18905;SDS011;9585;51.018;4.282;2022-07-12T00:47:38;3.80;;;3.50;;
18905;SDS011;9585;51.018;4.282;2022-07-12T00:50:11;4.00;;;3.60;;
18905;SDS011;9585;51.018;4.282;2022-07-12T00:52:41;3.72;;;3.42;;
18905;SDS011;9585;51.018;4.282;2022-07-12T00:55:09;4.03;;;3.67;;
18905;SDS011;9585;51.018;4.282;2022-07-12T00:57:37;4.22;;;3.85;;
18905;SDS011;9585;51.018;4.282;2022-07-12T01:00:07;3.75;;;3.45;;
18905;SDS011;9585;51.018;4.282;2022-07-12T01:02:37;4.55;;;4.15;;
18905;SDS011;9585;51.018;4.282;2022-07-12T01:05:05;4.25;;;3.85;;
18905;SDS011;9585;51.018;4.282;2022-07-12T01:07:36;4.30;;;3.90;;
18905;SDS011;9585;51.018;4.282;2022-07-12T01:10:05;4.55;;;4.15;;
18905;SDS011;9585;51.018;4.282;2022-07-12T01:12:34;4.82;;;4.00;;
18905;SDS011;9585;51.018;4.282;2022-07-12T01:15:01;4.63;;;4.15;;
18905;SDS011;9585;51.018;4.282;2022-07-12T01:17:31;4.28;;;3.90;;
18905;SDS011;9585;51.018;4.282;2022-07-12T01:19:58;4.25;;;3.85;;
18905;SDS011;9585;51.018;4.282;2022-07-12T01:22:27;4.78;;;4.38;;
18905;SDS011;9585;51.018;4.282;2022-07-12T01:24:58;4.32;;;3.92;;
18905;SDS011;9585;51.018;4.282;2022-07-12T01:27:26;4.80;;;4.32;;
18905;SDS011;9585;51.018;4.282;2022-07-12T01:29:54;4.75;;;4.35;;
18905;SDS011;9585;51.018;4.282;2022-07-12T01:32:21;4.80;;;4.40;;
18905;SDS011;9585;51.018;4.282;2022-07-12T01:34:52;4.60;;;4.18;;
18905;SDS011;9585;51.018;4.282;2022-07-12T01:37:21;4.30;;;3.90;;
18905;SDS011;9585;51.018;4.282;2022-07-12T01:39:49;4.57;;;3.90;;
18905;SDS011;9585;51.018;4.282;2022-07-12T01:42:20;4.75;;;4.35;;
18905;SDS011;9585;51.018;4.282;2022-07-12T01:44:48;4.45;;;3.80;;
18905;SDS011;9585;51.018;4.282;2022-07-12T01:47:16;4.10;;;3.70;;
18905;SDS011;9585;51.018;4.282;2022-07-12T01:49:44;3.75;;;3.45;;
18905;SDS011;9585;51.018;4.282;2022-07-12T01:52:12;3.97;;;3.63;;
18905;SDS011;9585;51.018;4.282;2022-07-12T01:54:39;4.25;;;3.88;;
18905;SDS011;9585;51.018;4.282;2022-07-12T01:57:08;4.88;;;4.47;;
18905;SDS011;9585;51.018;4.282;2022-07-12T01:59:37;4.70;;;4.10;;
18905;SDS011;9585;51.018;4.282;2022-07-12T02:02:05;3.95;;;3.55;;
18905;SDS011;9585;51.018;4.282;2022-07-12T02:04:33;4.50;;;3.83;;
18905;SDS011;9585;51.018;4.282;2022-07-12T02:07:02;4.38;;;3.97;;
18905;SDS011;9585;51.018;4.282;2022-07-12T02:09:30;4.40;;;4.00;;
18905;SDS011;9585;51.018;4.282;2022-07-12T02:11:58;4.43;;;4.03;;
18905;SDS011;9585;51.018;4.282;2022-07-12T02:14:26;4.07;;;3.75;;
18905;SDS011;9585;51.018;4.282;2022-07-12T02:16:55;3.70;;;3.40;;
18905;SDS011;9585;51.018;4.282;2022-07-12T02:19:22;4.10;;;3.70;;
18905;SDS011;9585;51.018;4.282;2022-07-12T02:21:49;4.35;;;3.83;;
18905;SDS011;9585;51.018;4.282;2022-07-12T02:24:25;3.60;;;3.30;;
18905;SDS011;9585;51.018;4.282;2022-07-12T02:26:53;4.30;;;3.75;;
18905;SDS011;9585;51.018;4.282;2022-07-12T02:29:20;4.97;;;4.57;;
18905;SDS011;9585;51.018;4.282;2022-07-12T02:31:47;5.13;;;4.63;;
18905;SDS011;9585;51.018;4.282;2022-07-12T02:34:17;4.72;;;4.32;;
18905;SDS011;9585;51.018;4.282;2022-07-12T02:36:44;4.78;;;4.38;;
18905;SDS011;9585;51.018;4.282;2022-07-12T02:39:12;4.47;;;4.07;;
18905;SDS011;9585;51.018;4.282;2022-07-12T02:41:39;4.80;;;4.40;;
18905;SDS011;9585;51.018;4.282;2022-07-12T02:44:06;5.70;;;4.70;;
18905;SDS011;9585;51.018;4.282;2022-07-12T02:46:34;4.78;;;4.32;;
18905;SDS011;9585;51.018;4.282;2022-07-12T02:49:01;4.78;;;4.38;;
18905;SDS011;9585;51.018;4.282;2022-07-12T02:51:30;4.93;;;4.43;;
18905;SDS011;9585;51.018;4.282;2022-07-12T02:53:58;5.15;;;4.75;;
18905;SDS011;9585;51.018;4.282;2022-07-12T02:56:25;5.35;;;4.85;;
18905;SDS011;9585;51.018;4.282;2022-07-12T02:58:53;5.43;;;4.70;;
18905;SDS011;9585;51.018;4.282;2022-07-12T03:01:20;5.07;;;4.60;;
18905;SDS011;9585;51.018;4.282;2022-07-12T03:03:47;5.00;;;4.50;;
18905;SDS011;9585;51.018;4.282;2022-07-12T03:06:14;4.40;;;4.00;;
18905;SDS011;9585;51.018;4.282;2022-07-12T03:08:43;4.55;;;4.15;;
18905;SDS011;9585;51.018;4.282;2022-07-12T03:11:11;4.65;;;4.25;;
18905;SDS011;9585;51.018;4.282;2022-07-12T03:13:38;5.18;;;4.18;;
18905;SDS011;9585;51.018;4.282;2022-07-12T03:16:05;4.45;;;4.05;;
18905;SDS011;9585;51.018;4.282;2022-07-12T03:18:34;4.47;;;4.07;;
18905;SDS011;9585;51.018;4.282;2022-07-12T03:21:01;4.65;;;4.13;;
18905;SDS011;9585;51.018;4.282;2022-07-12T03:23:29;4.35;;;3.95;;
18905;SDS011;9585;51.018;4.282;2022-07-12T03:25:57;5.18;;;4.13;;
18905;SDS011;9585;51.018;4.282;2022-07-12T03:28:25;4.40;;;4.00;;
18905;SDS011;9585;51.018;4.282;2022-07-12T03:30:52;5.40;;;4.90;;
18905;SDS011;9585;51.018;4.282;2022-07-12T03:33:20;5.35;;;4.65;;
18905;SDS011;9585;51.018;4.282;2022-07-12T03:35:47;5.38;;;4.88;;
18905;SDS011;9585;51.018;4.282;2022-07-12T03:38:14;5.57;;;5.07;;
18905;SDS011;9585;51.018;4.282;2022-07-12T03:40:42;4.63;;;4.22;;
18905;SDS011;9585;51.018;4.282;2022-07-12T03:43:11;4.47;;;4.07;;
18905;SDS011;9585;51.018;4.282;2022-07-12T03:45:38;4.20;;;3.83;;
18905;SDS011;9585;51.018;4.282;2022-07-12T03:48:07;4.22;;;3.63;;
18905;SDS011;9585;51.018;4.282;2022-07-12T03:50:34;3.90;;;3.60;;
18905;SDS011;9585;51.018;4.282;2022-07-12T03:53:02;4.32;;;3.92;;
18905;SDS011;9585;51.018;4.282;2022-07-12T03:55:29;4.20;;;3.70;;
18905;SDS011;9585;51.018;4.282;2022-07-12T03:57:56;4.13;;;3.80;;
18905;SDS011;9585;51.018;4.282;2022-07-12T04:00:26;4.72;;;4.30;;
18905;SDS011;9585;51.018;4.282;2022-07-12T04:02:53;4.50;;;4.10;;
18905;SDS011;9585;51.018;4.282;2022-07-12T04:05:20;4.38;;;3.97;;
18905;SDS011;9585;51.018;4.282;2022-07-12T04:07:51;4.07;;;3.67;;
18905;SDS011;9585;51.018;4.282;2022-07-12T04:10:19;5.65;;;4.47;;
18905;SDS011;9585;51.018;4.282;2022-07-12T04:12:47;4.55;;;4.15;;
18905;SDS011;9585;51.018;4.282;2022-07-12T04:15:14;5.22;;;4.40;;
18905;SDS011;9585;51.018;4.282;2022-07-12T04:17:43;3.53;;;3.22;;
18905;SDS011;9585;51.018;4.282;2022-07-12T04:20:11;4.90;;;4.43;;
18905;SDS011;9585;51.018;4.282;2022-07-12T04:22:38;4.07;;;3.67;;
18905;SDS011;9585;51.018;4.282;2022-07-12T04:25:06;4.53;;;4.00;;
18905;SDS011;9585;51.018;4.282;2022-07-12T04:27:35;3.90;;;3.60;;
18905;SDS011;9585;51.018;4.282;2022-07-12T04:30:02;4.40;;;4.00;;
18905;SDS011;9585;51.018;4.282;2022-07-12T04:32:30;3.00;;;2.80;;
18905;SDS011;9585;51.018;4.282;2022-07-12T04:34:59;3.33;;;2.97;;
18905;SDS011;9585;51.018;4.282;2022-07-12T04:37:26;3.33;;;3.10;;
18905;SDS011;9585;51.018;4.282;2022-07-12T04:39:54;3.10;;;2.80;;
18905;SDS011;9585;51.018;4.282;2022-07-12T04:42:21;3.55;;;3.25;;
18905;SDS011;9585;51.018;4.282;2022-07-12T04:44:48;3.70;;;3.40;;
18905;SDS011;9585;51.018;4.282;2022-07-12T04:47:16;3.63;;;3.10;;
18905;SDS011;9585;51.018;4.282;2022-07-12T04:49:43;4.43;;;3.08;;
18905;SDS011;9585;51.018;4.282;2022-07-12T04:52:12;3.25;;;2.90;;
18905;SDS011;9585;51.018;4.282;2022-07-12T04:54:39;3.25;;;2.80;;
18905;SDS011;9585;51.018;4.282;2022-07-12T04:57:06;3.10;;;2.80;;
18905;SDS011;9585;51.018;4.282;2022-07-12T04:59:34;4.22;;;2.97;;
18905;SDS011;9585;51.018;4.282;2022-07-12T05:02:01;3.97;;;3.10;;
18905;SDS011;9585;51.018;4.282;2022-07-12T05:04:31;3.20;;;3.00;;
18905;SDS011;9585;51.018;4.282;2022-07-12T05:06:59;3.20;;;3.00;;
18905;SDS011;9585;51.018;4.282;2022-07-12T05:09:28;4.15;;;3.75;;
18905;SDS011;9585;51.018;4.282;2022-07-12T05:11:55;3.63;;;3.25;;
18905;SDS011;9585;51.018;4.282;2022-07-12T05:14:22;3.30;;;3.00;;
18905;SDS011;9585;51.018;4.282;2022-07-12T05:16:50;2.72;;;2.53;;
18905;SDS011;9585;51.018;4.282;2022-07-12T05:19:17;3.45;;;3.20;;
18905;SDS011;9585;51.018;4.282;2022-07-12T05:21:44;3.20;;;2.90;;
18905;SDS011;9585;51.018;4.282;2022-07-12T05:24:12;3.53;;;2.88;;
18905;SDS011;9585;51.018;4.282;2022-07-12T05:26:41;3.58;;;3.03;;
18905;SDS011;9585;51.018;4.282;2022-07-12T05:29:09;3.53;;;3.20;;
18905;SDS011;9585;51.018;4.282;2022-07-12T05:31:36;2.75;;;2.33;;
18905;SDS011;9585;51.018;4.282;2022-07-12T05:34:03;2.67;;;2.35;;
18905;SDS011;9585;51.018;4.282;2022-07-12T05:36:31;2.83;;;2.58;;
18905;SDS011;9585;51.018;4.282;2022-07-12T05:38:58;6.22;;;3.30;;
18905;SDS011;9585;51.018;4.282;2022-07-12T05:41:25;3.80;;;3.30;;
18905;SDS011;9585;51.018;4.282;2022-07-12T05:43:54;3.67;;;3.38;;
18905;SDS011;9585;51.018;4.282;2022-07-12T05:46:22;3.42;;;3.13;;
18905;SDS011;9585;51.018;4.282;2022-07-12T05:48:52;4.57;;;3.45;;
18905;SDS011;9585;51.018;4.282;2022-07-12T05:51:20;3.63;;;3.20;;
18905;SDS011;9585;51.018;4.282;2022-07-12T05:54:05;4.43;;;2.88;;
18905;SDS011;9585;51.018;4.282;2022-07-12T05:56:32;4.63;;;2.80;;
18905;SDS011;9585;51.018;4.282;2022-07-12T05:59:01;3.80;;;3.40;;
18905;SDS011;9585;51.018;4.282;2022-07-12T06:01:28;6.20;;;3.80;;
18905;SDS011;9585;51.018;4.282;2022-07-12T06:03:56;5.07;;;3.30;;
18905;SDS011;9585;51.018;4.282;2022-07-12T06:06:23;5.85;;;2.90;;
18905;SDS011;9585;51.018;4.282;2022-07-12T06:08:51;4.43;;;2.90;;
18905;SDS011;9585;51.018;4.282;2022-07-12T06:11:18;3.28;;;2.97;;
18905;SDS011;9585;51.018;4.282;2022-07-12T06:13:45;3.95;;;3.00;;
18905;SDS011;9585;51.018;4.282;2022-07-12T06:16:16;3.90;;;2.80;;
18905;SDS011;9585;51.018;4.282;2022-07-12T06:18:43;3.05;;;2.75;;
18905;SDS011;9585;51.018;4.282;2022-07-12T06:21:11;5.43;;;2.97;;
18905;SDS011;9585;51.018;4.282;2022-07-12T06:23:38;4.18;;;3.58;;
18905;SDS011;9585;51.018;4.282;2022-07-12T06:26:06;7.07;;;3.55;;
18905;SDS011;9585;51.018;4.282;2022-07-12T06:28:33;3.05;;;2.75;;
18905;SDS011;9585;51.018;4.282;2022-07-12T06:31:02;3.60;;;3.20;;
18905;SDS011;9585;51.018;4.282;2022-07-12T06:33:31;4.00;;;3.60;;
18905;SDS011;9585;51.018;4.282;2022-07-12T06:35:59;6.22;;;3.25;;
18905;SDS011;9585;51.018;4.282;2022-07-12T06:38:27;4.82;;;3.63;;
18905;SDS011;9585;51.018;4.282;2022-07-12T06:40:54;3.40;;;3.10;;
18905;SDS011;9585;51.018;4.282;2022-07-12T06:43:21;3.58;;;3.05;;
18905;SDS011;9585;51.018;4.282;2022-07-12T06:45:48;5.15;;;3.33;;
18905;SDS011;9585;51.018;4.282;2022-07-12T06:48:16;3.50;;;3.00;;
18905;SDS011;9585;51.018;4.282;2022-07-12T06:50:45;5.30;;;4.32;;
18905;SDS011;9585;51.018;4.282;2022-07-12T06:53:12;4.53;;;4.07;;
18905;SDS011;9585;51.018;4.282;2022-07-12T06:55:39;5.70;;;4.45;;
18905;SDS011;9585;51.018;4.282;2022-07-12T06:58:10;3.80;;;3.28;;
18905;SDS011;9585;51.018;4.282;2022-07-12T07:00:37;4.57;;;3.38;;
18905;SDS011;9585;51.018;4.282;2022-07-12T07:03:05;3.47;;;3.17;;
18905;SDS011;9585;51.018;4.282;2022-07-12T07:05:33;4.55;;;3.40;;
18905;SDS011;9585;51.018;4.282;2022-07-12T07:08:03;6.25;;;3.50;;
18905;SDS011;9585;51.018;4.282;2022-07-12T07:10:30;3.40;;;2.88;;
18905;SDS011;9585;51.018;4.282;2022-07-12T07:12:58;3.80;;;3.50;;
18905;SDS011;9585;51.018;4.282;2022-07-12T07:15:26;5.00;;;2.90;;
18905;SDS011;9585;51.018;4.282;2022-07-12T07:17:53;3.47;;;3.00;;
18905;SDS011;9585;51.018;4.282;2022-07-12T07:20:22;3.95;;;3.22;;
18905;SDS011;9585;51.018;4.282;2022-07-12T07:22:49;2.83;;;2.63;;
18905;SDS011;9585;51.018;4.282;2022-07-12T07:25:17;3.45;;;3.15;;
18905;SDS011;9585;51.018;4.282;2022-07-12T07:27:45;4.20;;;3.22;;
18905;SDS011;9585;51.018;4.282;2022-07-12T07:30:12;3.83;;;3.42;;
18905;SDS011;9585;51.018;4.282;2022-07-12T07:32:57;4.03;;;3.33;;
18905;SDS011;9585;51.018;4.282;2022-07-12T07:35:26;3.97;;;3.67;;
18905;SDS011;9585;51.018;4.282;2022-07-12T07:37:53;7.30;;;3.30;;
18905;SDS011;9585;51.018;4.282;2022-07-12T07:40:22;3.50;;;3.20;;
18905;SDS011;9585;51.018;4.282;2022-07-12T07:42:49;5.43;;;3.45;;
18905;SDS011;9585;51.018;4.282;2022-07-12T07:45:16;4.57;;;3.25;;
18905;SDS011;9585;51.018;4.282;2022-07-12T07:47:44;4.10;;;3.20;;
18905;SDS011;9585;51.018;4.282;2022-07-12T07:50:13;5.78;;;3.92;;
18905;SDS011;9585;51.018;4.282;2022-07-12T07:52:40;6.05;;;4.07;;
18905;SDS011;9585;51.018;4.282;2022-07-12T07:55:08;3.92;;;3.35;;
18905;SDS011;9585;51.018;4.282;2022-07-12T07:57:37;3.75;;;3.45;;
18905;SDS011;9585;51.018;4.282;2022-07-12T08:00:04;4.47;;;3.80;;
18905;SDS011;9585;51.018;4.282;2022-07-12T08:02:32;5.25;;;4.50;;
18905;SDS011;9585;51.018;4.282;2022-07-12T08:04:59;4.95;;;4.10;;
18905;SDS011;9585;51.018;4.282;2022-07-12T08:07:27;5.53;;;4.20;;
18905;SDS011;9585;51.018;4.282;2022-07-12T08:09:54;3.58;;;3.28;;
18905;SDS011;9585;51.018;4.282;2022-07-12T08:12:21;4.35;;;3.30;;
18905;SDS011;9585;51.018;4.282;2022-07-12T08:14:50;4.40;;;3.78;;
18905;SDS011;9585;51.018;4.282;2022-07-12T08:17:17;4.47;;;3.58;;
18905;SDS011;9585;51.018;4.282;2022-07-12T08:19:45;3.67;;;3.38;;
18905;SDS011;9585;51.018;4.282;2022-07-12T08:22:12;3.85;;;3.13;;
18905;SDS011;9585;51.018;4.282;2022-07-12T08:24:45;3.40;;;3.15;;
18905;SDS011;9585;51.018;4.282;2022-07-12T08:27:12;3.20;;;2.90;;
18905;SDS011;9585;51.018;4.282;2022-07-12T08:29:39;3.70;;;3.28;;
18905;SDS011;9585;51.018;4.282;2022-07-12T08:32:09;5.38;;;3.58;;
18905;SDS011;9585;51.018;4.282;2022-07-12T08:34:36;4.68;;;3.10;;
18905;SDS011;9585;51.018;4.282;2022-07-12T08:37:04;4.55;;;3.17;;
18905;SDS011;9585;51.018;4.282;2022-07-12T08:39:31;3.63;;;3.33;;
18905;SDS011;9585;51.018;4.282;2022-07-12T08:42:00;3.50;;;3.10;;
18905;SDS011;9585;51.018;4.282;2022-07-12T08:44:28;4.35;;;3.70;;
18905;SDS011;9585;51.018;4.282;2022-07-12T08:46:55;3.45;;;3.15;;
18905;SDS011;9585;51.018;4.282;2022-07-12T08:49:24;3.45;;;3.17;;
18905;SDS011;9585;51.018;4.282;2022-07-12T08:51:53;4.05;;;3.50;;
18905;SDS011;9585;51.018;4.282;2022-07-12T08:54:21;4.25;;;3.25;;
18905;SDS011;9585;51.018;4.282;2022-07-12T08:56:48;3.53;;;3.22;;
18905;SDS011;9585;51.018;4.282;2022-07-12T08:59:16;3.40;;;3.10;;
18905;SDS011;9585;51.018;4.282;2022-07-12T09:01:45;3.85;;;3.30;;
18905;SDS011;9585;51.018;4.282;2022-07-12T09:04:16;4.15;;;3.83;;
18905;SDS011;9585;51.018;4.282;2022-07-12T09:06:47;3.30;;;3.10;;
18905;SDS011;9585;51.018;4.282;2022-07-12T09:09:25;3.95;;;3.38;;
18905;SDS011;9585;51.018;4.282;2022-07-12T09:11:53;3.50;;;3.20;;
18905;SDS011;9585;51.018;4.282;2022-07-12T09:14:21;4.53;;;3.47;;
18905;SDS011;9585;51.018;4.282;2022-07-12T09:17:01;3.92;;;3.13;;
18905;SDS011;9585;51.018;4.282;2022-07-12T09:19:30;3.35;;;3.05;;
18905;SDS011;9585;51.018;4.282;2022-07-12T09:22:00;3.80;;;3.10;;
18905;SDS011;9585;51.018;4.282;2022-07-12T09:24:27;3.90;;;3.35;;
18905;SDS011;9585;51.018;4.282;2022-07-12T09:26:56;3.60;;;3.10;;
18905;SDS011;9585;51.018;4.282;2022-07-12T09:29:25;3.78;;;3.42;;
18905;SDS011;9585;51.018;4.282;2022-07-12T09:31:55;3.70;;;3.40;;
18905;SDS011;9585;51.018;4.282;2022-07-12T09:34:40;4.72;;;3.67;;
18905;SDS011;9585;51.018;4.282;2022-07-12T09:37:26;6.97;;;3.60;;
18905;SDS011;9585;51.018;4.282;2022-07-12T09:40:06;4.00;;;3.60;;
18905;SDS011;9585;51.018;4.282;2022-07-12T09:42:35;4.07;;;3.45;;
18905;SDS011;9585;51.018;4.282;2022-07-12T09:45:03;4.65;;;3.92;;
18905;SDS011;9585;51.018;4.282;2022-07-12T09:47:34;3.67;;;3.38;;
18905;SDS011;9585;51.018;4.282;2022-07-12T09:50:03;3.97;;;3.67;;
18905;SDS011;9585;51.018;4.282;2022-07-12T09:52:34;5.72;;;3.63;;
18905;SDS011;9585;51.018;4.282;2022-07-12T09:55:04;4.93;;;3.53;;
18905;SDS011;9585;51.018;4.282;2022-07-12T09:57:34;3.70;;;3.40;;
18905;SDS011;9585;51.018;4.282;2022-07-12T10:00:06;3.40;;;3.10;;
18905;SDS011;9585;51.018;4.282;2022-07-12T10:02:37;3.20;;;3.00;;
18905;SDS011;9585;51.018;4.282;2022-07-12T10:05:05;3.30;;;3.00;;
18905;SDS011;9585;51.018;4.282;2022-07-12T10:07:38;3.72;;;3.30;;
18905;SDS011;9585;51.018;4.282;2022-07-12T10:10:05;3.72;;;3.38;;
18905;SDS011;9585;51.018;4.282;2022-07-12T10:12:35;4.60;;;3.72;;
18905;SDS011;9585;51.018;4.282;2022-07-12T10:15:04;5.65;;;3.40;;
18905;SDS011;9585;51.018;4.282;2022-07-12T10:17:35;3.38;;;3.10;;
18905;SDS011;9585;51.018;4.282;2022-07-12T10:20:15;3.47;;;3.10;;
18905;SDS011;9585;51.018;4.282;2022-07-12T10:22:45;3.58;;;3.28;;
18905;SDS011;9585;51.018;4.282;2022-07-12T10:25:28;3.85;;;3.38;;
18905;SDS011;9585;51.018;4.282;2022-07-12T10:27:58;4.07;;;3.67;;
18905;SDS011;9585;51.018;4.282;2022-07-12T10:30:28;3.90;;;3.60;;
18905;SDS011;9585;51.018;4.282;2022-07-12T10:32:57;4.05;;;3.50;;
18905;SDS011;9585;51.018;4.282;2022-07-12T10:35:26;3.40;;;3.10;;
18905;SDS011;9585;51.018;4.282;2022-07-12T10:38:15;3.70;;;3.40;;
18905;SDS011;9585;51.018;4.282;2022-07-12T10:40:47;3.67;;;3.30;;
18905;SDS011;9585;51.018;4.282;2022-07-12T10:43:25;3.30;;;3.00;;
18905;SDS011;9585;51.018;4.282;2022-07-12T10:46:13;3.63;;;3.33;;
18905;SDS011;9585;51.018;4.282;2022-07-12T10:48:45;3.58;;;3.22;;
18905;SDS011;9585;51.018;4.282;2022-07-12T10:51:13;4.65;;;3.05;;
18905;SDS011;9585;51.018;4.282;2022-07-12T10:53:45;4.60;;;3.17;;
18905;SDS011;9585;51.018;4.282;2022-07-12T10:56:16;3.70;;;2.72;;
18905;SDS011;9585;51.018;4.282;2022-07-12T10:58:48;3.00;;;2.70;;
18905;SDS011;9585;51.018;4.282;2022-07-12T11:01:18;3.05;;;2.85;;
18905;SDS011;9585;51.018;4.282;2022-07-12T11:03:46;2.90;;;2.70;;
18905;SDS011;9585;51.018;4.282;2022-07-12T11:06:18;3.15;;;2.80;;
18905;SDS011;9585;51.018;4.282;2022-07-12T11:08:52;2.42;;;2.22;;
18905;SDS011;9585;51.018;4.282;2022-07-12T11:11:25;2.67;;;2.47;;
18905;SDS011;9585;51.018;4.282;2022-07-12T11:13:54;2.75;;;2.55;;
18905;SDS011;9585;51.018;4.282;2022-07-12T11:16:23;3.15;;;2.65;;
18905;SDS011;9585;51.018;4.282;2022-07-12T11:18:51;2.85;;;2.65;;
18905;SDS011;9585;51.018;4.282;2022-07-12T11:21:19;3.85;;;2.83;;
18905;SDS011;9585;51.018;4.282;2022-07-12T11:23:47;2.97;;;2.67;;
18905;SDS011;9585;51.018;4.282;2022-07-12T11:26:16;2.90;;;2.60;;
18905;SDS011;9585;51.018;4.282;2022-07-12T11:28:44;3.05;;;2.70;;
18905;SDS011;9585;51.018;4.282;2022-07-12T11:31:14;4.00;;;2.60;;
18905;SDS011;9585;51.018;4.282;2022-07-12T11:33:47;3.15;;;2.78;;
18905;SDS011;9585;51.018;4.282;2022-07-12T11:36:16;3.35;;;3.05;;
18905;SDS011;9585;51.018;4.282;2022-07-12T11:38:45;3.22;;;2.90;;
18905;SDS011;9585;51.018;4.282;2022-07-12T11:41:13;3.00;;;2.80;;
18905;SDS011;9585;51.018;4.282;2022-07-12T11:43:42;3.28;;;2.78;;
18905;SDS011;9585;51.018;4.282;2022-07-12T11:46:10;3.47;;;2.83;;
18905;SDS011;9585;51.018;4.282;2022-07-12T11:48:40;4.25;;;2.85;;
18905;SDS011;9585;51.018;4.282;2022-07-12T11:51:11;3.10;;;2.80;;
18905;SDS011;9585;51.018;4.282;2022-07-12T11:53:42;3.03;;;2.72;;
18905;SDS011;9585;51.018;4.282;2022-07-12T11:56:12;3.40;;;3.10;;
18905;SDS011;9585;51.018;4.282;2022-07-12T11:58:42;3.30;;;3.00;;
18905;SDS011;9585;51.018;4.282;2022-07-12T12:01:23;3.38;;;3.08;;
18905;SDS011;9585;51.018;4.282;2022-07-12T12:03:53;3.25;;;3.00;;
18905;SDS011;9585;51.018;4.282;2022-07-12T12:06:21;3.42;;;3.13;;
18905;SDS011;9585;51.018;4.282;2022-07-12T12:08:52;4.93;;;2.95;;
18905;SDS011;9585;51.018;4.282;2022-07-12T12:11:26;3.60;;;3.30;;
18905;SDS011;9585;51.018;4.282;2022-07-12T12:13:56;3.50;;;3.20;;
18905;SDS011;9585;51.018;4.282;2022-07-12T12:16:24;3.85;;;3.20;;
18905;SDS011;9585;51.018;4.282;2022-07-12T12:18:52;3.45;;;3.15;;
18905;SDS011;9585;51.018;4.282;2022-07-12T12:21:19;3.85;;;3.00;;
18905;SDS011;9585;51.018;4.282;2022-07-12T12:24:07;3.97;;;3.17;;
18905;SDS011;9585;51.018;4.282;2022-07-12T12:26:35;4.45;;;3.28;;
18905;SDS011;9585;51.018;4.282;2022-07-12T12:29:04;3.67;;;3.38;;
18905;SDS011;9585;51.018;4.282;2022-07-12T12:31:32;4.18;;;3.45;;
18905;SDS011;9585;51.018;4.282;2022-07-12T12:33:59;3.65;;;3.35;;
18905;SDS011;9585;51.018;4.282;2022-07-12T12:36:36;3.30;;;3.00;;
18905;SDS011;9585;51.018;4.282;2022-07-12T12:39:03;4.20;;;3.08;;
18905;SDS011;9585;51.018;4.282;2022-07-12T12:41:38;4.40;;;3.67;;
18905;SDS011;9585;51.018;4.282;2022-07-12T12:44:10;3.30;;;3.00;;
18905;SDS011;9585;51.018;4.282;2022-07-12T12:46:44;4.75;;;3.17;;
18905;SDS011;9585;51.018;4.282;2022-07-12T12:49:45;3.30;;;3.00;;
18905;SDS011;9585;51.018;4.282;2022-07-12T12:52:14;3.58;;;3.00;;
18905;SDS011;9585;51.018;4.282;2022-07-12T12:54:46;3.33;;;3.03;;
18905;SDS011;9585;51.018;4.282;2022-07-12T12:57:13;3.40;;;3.08;;
18905;SDS011;9585;51.018;4.282;2022-07-12T12:59:44;2.88;;;2.60;;
18905;SDS011;9585;51.018;4.282;2022-07-12T13:02:11;3.13;;;2.70;;
18905;SDS011;9585;51.018;4.282;2022-07-12T13:04:42;4.22;;;2.88;;
18905;SDS011;9585;51.018;4.282;2022-07-12T13:07:13;3.70;;;3.17;;
18905;SDS011;9585;51.018;4.282;2022-07-12T13:09:41;5.60;;;2.97;;
18905;SDS011;9585;51.018;4.282;2022-07-12T13:12:08;2.70;;;2.50;;
18905;SDS011;9585;51.018;4.282;2022-07-12T13:14:36;4.55;;;3.40;;
18905;SDS011;9585;51.018;4.282;2022-07-12T13:17:07;5.18;;;3.28;;
18905;SDS011;9585;51.018;4.282;2022-07-12T13:19:34;3.08;;;2.80;;
18905;SDS011;9585;51.018;4.282;2022-07-12T13:22:02;3.33;;;2.80;;
18905;SDS011;9585;51.018;4.282;2022-07-12T13:24:30;3.35;;;3.00;;
18905;SDS011;9585;51.018;4.282;2022-07-12T13:26:57;3.40;;;3.10;;
18905;SDS011;9585;51.018;4.282;2022-07-12T13:29:25;2.60;;;2.40;;
18905;SDS011;9585;51.018;4.282;2022-07-12T13:31:59;2.53;;;2.33;;
18905;SDS011;9585;51.018;4.282;2022-07-12T13:34:28;2.88;;;2.65;;
18905;SDS011;9585;51.018;4.282;2022-07-12T13:36:56;2.72;;;2.53;;
18905;SDS011;9585;51.018;4.282;2022-07-12T13:39:25;2.75;;;2.50;;
18905;SDS011;9585;51.018;4.282;2022-07-12T13:42:21;2.80;;;2.60;;
18905;SDS011;9585;51.018;4.282;2022-07-12T13:44:50;3.90;;;2.70;;
18905;SDS011;9585;51.018;4.282;2022-07-12T13:47:18;2.80;;;2.60;;
18905;SDS011;9585;51.018;4.282;2022-07-12T13:49:47;3.25;;;2.53;;
18905;SDS011;9585;51.018;4.282;2022-07-12T13:52:15;2.50;;;2.30;;
18905;SDS011;9585;51.018;4.282;2022-07-12T13:54:44;2.70;;;2.40;;
18905;SDS011;9585;51.018;4.282;2022-07-12T13:57:11;2.33;;;2.10;;
18905;SDS011;9585;51.018;4.282;2022-07-12T13:59:39;2.63;;;2.42;;
18905;SDS011;9585;51.018;4.282;2022-07-12T14:02:15;2.40;;;2.00;;
18905;SDS011;9585;51.018;4.282;2022-07-12T14:04:43;2.17;;;2.00;;
18905;SDS011;9585;51.018;4.282;2022-07-12T14:07:12;2.40;;;2.20;;
18905;SDS011;9585;51.018;4.282;2022-07-12T14:09:43;2.28;;;2.08;;
18905;SDS011;9585;51.018;4.282;2022-07-12T14:12:10;1.92;;;1.83;;
18905;SDS011;9585;51.018;4.282;2022-07-12T14:14:40;2.80;;;1.90;;
18905;SDS011;9585;51.018;4.282;2022-07-12T14:17:33;2.65;;;2.20;;
18905;SDS011;9585;51.018;4.282;2022-07-12T14:20:00;2.25;;;2.00;;
18905;SDS011;9585;51.018;4.282;2022-07-12T14:22:34;3.90;;;2.30;;
18905;SDS011;9585;51.018;4.282;2022-07-12T14:25:04;2.10;;;1.90;;
18905;SDS011;9585;51.018;4.282;2022-07-12T14:27:32;1.90;;;1.80;;
18905;SDS011;9585;51.018;4.282;2022-07-12T14:30:15;2.60;;;1.98;;
18905;SDS011;9585;51.018;4.282;2022-07-12T14:32:43;2.00;;;1.90;;
18905;SDS011;9585;51.018;4.282;2022-07-12T14:35:10;2.10;;;1.88;;
18905;SDS011;9585;51.018;4.282;2022-07-12T14:37:44;1.90;;;1.75;;
18905;SDS011;9585;51.018;4.282;2022-07-12T14:40:24;2.25;;;1.67;;
18905;SDS011;9585;51.018;4.282;2022-07-12T14:42:58;1.70;;;1.60;;
18905;SDS011;9585;51.018;4.282;2022-07-12T14:45:25;1.73;;;1.40;;
18905;SDS011;9585;51.018;4.282;2022-07-12T14:48:01;1.45;;;1.30;;
18905;SDS011;9585;51.018;4.282;2022-07-12T14:50:31;1.75;;;1.20;;
18905;SDS011;9585;51.018;4.282;2022-07-12T14:53:03;1.40;;;1.30;;
18905;SDS011;9585;51.018;4.282;2022-07-12T14:55:30;1.67;;;1.30;;
18905;SDS011;9585;51.018;4.282;2022-07-12T14:57:58;1.85;;;1.30;;
18905;SDS011;9585;51.018;4.282;2022-07-12T15:00:25;3.13;;;1.50;;
18905;SDS011;9585;51.018;4.282;2022-07-12T15:03:01;1.92;;;1.33;;
18905;SDS011;9585;51.018;4.282;2022-07-12T15:05:29;1.50;;;1.40;;
18905;SDS011;9585;51.018;4.282;2022-07-12T15:07:58;1.20;;;1.10;;
18905;SDS011;9585;51.018;4.282;2022-07-12T15:10:37;1.23;;;1.13;;
18905;SDS011;9585;51.018;4.282;2022-07-12T15:13:06;1.40;;;1.30;;